createdAt,value
2023-05-19T00:01:25.850Z,12.33
2023-05-19T00:03:57.615Z,12.23
2023-05-19T00:06:27.320Z,12.16
2023-05-19T00:09:03.388Z,12.14
2023-05-19T00:11:30.822Z,12.25
2023-05-19T00:14:00.224Z,12.08
2023-05-19T00:16:29.512Z,12.09
2023-05-19T00:19:00.267Z,12.13
2023-05-19T00:21:28.103Z,12.22
2023-05-19T00:23:55.764Z,12.23
2023-05-19T00:26:23.558Z,12.39
2023-05-19T00:28:51.139Z,12.36
2023-05-19T00:31:18.152Z,12.25
2023-05-19T00:33:45.512Z,12.17
2023-05-19T00:36:12.984Z,12.23
2023-05-19T00:38:40.078Z,11.96
2023-05-19T00:41:07.825Z,12.09
2023-05-19T00:43:34.950Z,12.25
2023-05-19T00:46:03.206Z,12.18
2023-05-19T00:48:30.479Z,12.15
2023-05-19T00:51:04.247Z,11.93
2023-05-19T00:53:33.568Z,11.82
2023-05-19T00:56:02.243Z,11.93
2023-05-19T00:58:30.798Z,11.83
2023-05-19T01:01:07.858Z,11.76
2023-05-19T01:03:36.302Z,11.85
2023-05-19T01:06:07.970Z,11.96
2023-05-19T01:08:37.681Z,11.69
2023-05-19T01:11:07.023Z,11.74
2023-05-19T01:13:36.369Z,11.83
2023-05-19T01:16:36.598Z,11.90
2023-05-19T01:19:25.538Z,11.97
2023-05-19T01:22:26.309Z,11.59
2023-05-19T01:25:33.441Z,11.82
2023-05-19T01:28:15.834Z,11.81
2023-05-19T01:30:45.439Z,11.74
2023-05-19T01:33:15.251Z,11.54
2023-05-19T01:35:44.199Z,11.67
2023-05-19T01:38:14.836Z,11.77
2023-05-19T01:40:43.796Z,11.77
2023-05-19T01:43:27.155Z,11.69
2023-05-19T01:45:57.462Z,11.69
2023-05-19T01:48:25.600Z,11.85
2023-05-19T01:50:52.794Z,11.77
2023-05-19T01:53:19.848Z,11.93
2023-05-19T01:55:50.979Z,11.80
2023-05-19T01:58:41.531Z,11.85
2023-05-19T02:01:11.364Z,11.71
2023-05-19T02:04:14.986Z,11.74
2023-05-19T02:07:03.619Z,11.81
2023-05-19T02:09:42.456Z,11.93
2023-05-19T02:12:30.693Z,11.89
2023-05-19T02:15:15.667Z,11.79
2023-05-19T02:17:51.819Z,11.69
2023-05-19T02:20:19.490Z,11.88
2023-05-19T02:22:46.609Z,11.92
2023-05-19T02:25:13.971Z,11.88
2023-05-19T02:27:42.051Z,11.96
2023-05-19T02:30:10.322Z,11.85
2023-05-19T02:32:37.731Z,11.86
2023-05-19T02:35:05.557Z,11.92
2023-05-19T02:37:32.678Z,12.03
2023-05-19T02:39:59.850Z,11.83
2023-05-19T02:42:26.958Z,11.77
2023-05-19T02:44:55.309Z,11.71
2023-05-19T02:47:22.412Z,11.58
2023-05-19T02:49:49.531Z,11.63
2023-05-19T02:52:16.657Z,11.77
2023-05-19T02:54:43.771Z,11.70
2023-05-19T02:57:11.303Z,11.65
2023-05-19T02:59:38.396Z,11.69
2023-05-19T03:02:05.532Z,11.67
2023-05-19T03:04:32.714Z,11.75
2023-05-19T03:06:59.789Z,11.68
2023-05-19T03:09:27.020Z,11.74
2023-05-19T03:11:54.061Z,11.75
2023-05-19T03:14:24.031Z,11.69
2023-05-19T03:16:51.594Z,11.68
2023-05-19T03:19:18.819Z,12.08
2023-05-19T03:21:46.394Z,11.65
2023-05-19T03:24:13.874Z,11.62
2023-05-19T03:26:42.120Z,11.91
2023-05-19T03:29:09.164Z,12.05
2023-05-19T03:31:36.384Z,12.01
2023-05-19T03:34:03.617Z,11.81
2023-05-19T03:36:32.306Z,11.68
2023-05-19T03:38:59.679Z,11.67
2023-05-19T03:41:26.706Z,11.73
2023-05-19T03:43:53.729Z,11.81
2023-05-19T03:46:21.030Z,11.95
2023-05-19T03:48:48.207Z,11.83
2023-05-19T03:51:15.334Z,11.77
2023-05-19T03:53:42.554Z,11.82
2023-05-19T03:56:13.919Z,11.77
2023-05-19T03:58:45.065Z,11.72
2023-05-19T04:01:12.262Z,11.69
2023-05-19T04:03:39.321Z,11.78
2023-05-19T04:06:06.824Z,11.78
2023-05-19T04:08:33.962Z,11.70
2023-05-19T04:11:01.504Z,11.71
2023-05-19T04:13:28.626Z,11.53
2023-05-19T04:15:56.078Z,11.72
2023-05-19T04:18:23.394Z,11.83
2023-05-19T04:20:51.217Z,11.68
2023-05-19T04:23:18.258Z,11.75
2023-05-19T04:25:45.380Z,11.68
2023-05-19T04:28:13.019Z,11.80
2023-05-19T04:30:40.317Z,11.65
2023-05-19T04:33:07.761Z,11.73
2023-05-19T04:35:35.242Z,11.77
2023-05-19T04:38:02.874Z,11.83
2023-05-19T04:40:31.512Z,11.96
2023-05-19T04:42:59.160Z,11.84
2023-05-19T04:45:26.395Z,11.70
2023-05-19T04:47:57.909Z,11.74
2023-05-19T04:50:25.406Z,11.78
2023-05-19T04:52:52.507Z,11.77
2023-05-19T04:55:19.793Z,11.86
2023-05-19T04:57:47.049Z,11.86
2023-05-19T05:00:14.833Z,11.76
2023-05-19T05:02:43.071Z,11.61
2023-05-19T05:05:10.332Z,11.68
2023-05-19T05:07:37.416Z,11.69
2023-05-19T05:10:05.392Z,11.70
2023-05-19T05:12:33.110Z,11.47
2023-05-19T05:15:00.576Z,11.71
2023-05-19T05:17:28.359Z,11.67
2023-05-19T05:19:56.008Z,11.66
2023-05-19T05:22:23.492Z,11.68
2023-05-19T05:24:50.997Z,11.87
2023-05-19T05:27:18.133Z,11.69
2023-05-19T05:29:45.334Z,12.00
2023-05-19T05:32:12.432Z,11.86
2023-05-19T05:34:41.113Z,11.95
2023-05-19T05:37:08.182Z,12.15
2023-05-19T05:39:35.407Z,11.68
2023-05-19T05:42:02.668Z,11.58
2023-05-19T05:44:29.886Z,11.87
2023-05-19T05:46:57.413Z,11.83
2023-05-19T05:49:24.900Z,11.53
2023-05-19T05:52:04.922Z,11.61
2023-05-19T05:54:33.953Z,11.71
2023-05-19T05:57:02.647Z,11.64
2023-05-19T05:59:29.802Z,11.28
2023-05-19T06:01:56.885Z,11.38
2023-05-19T06:04:25.721Z,11.51
2023-05-19T06:06:52.820Z,11.49
2023-05-19T06:09:20.067Z,11.61
2023-05-19T06:11:47.191Z,11.84
2023-05-19T06:14:14.234Z,11.79
2023-05-19T06:16:41.690Z,11.83
2023-05-19T06:19:08.877Z,11.79
2023-05-19T06:21:35.952Z,11.62
2023-05-19T06:24:03.102Z,11.79
2023-05-19T06:26:30.182Z,11.73
2023-05-19T06:28:57.553Z,11.73
2023-05-19T06:31:26.575Z,11.96
2023-05-19T06:33:53.890Z,12.04
2023-05-19T06:36:21.098Z,11.96
2023-05-19T06:38:48.187Z,12.09
2023-05-19T06:41:15.332Z,12.25
2023-05-19T06:43:43.291Z,12.18
2023-05-19T06:46:12.236Z,12.25
2023-05-19T06:48:39.556Z,12.14
2023-05-19T06:51:06.714Z,12.19
2023-05-19T06:53:35.023Z,12.28
2023-05-19T06:56:02.091Z,12.20
2023-05-19T06:58:29.141Z,12.03
2023-05-19T07:00:56.434Z,12.05
2023-05-19T07:03:23.575Z,12.10
2023-05-19T07:05:51.054Z,12.06
2023-05-19T07:08:18.074Z,12.04
2023-05-19T07:10:45.157Z,12.18
2023-05-19T07:13:12.241Z,11.92
2023-05-19T07:15:39.513Z,12.24
2023-05-19T07:18:06.628Z,12.34
2023-05-19T07:20:34.031Z,12.30
2023-05-19T07:23:02.746Z,12.41
2023-05-19T07:25:30.698Z,12.44
2023-05-19T07:27:57.883Z,12.34
2023-05-19T07:30:27.955Z,12.54
2023-05-19T07:32:55.581Z,12.31
2023-05-19T07:35:23.055Z,12.33
2023-05-19T07:37:52.642Z,12.42
2023-05-19T07:40:19.895Z,12.36
2023-05-19T07:42:48.142Z,12.19
2023-05-19T07:45:15.182Z,12.25
2023-05-19T07:47:42.360Z,12.24
2023-05-19T07:50:09.649Z,12.03
2023-05-19T07:52:36.770Z,12.08
2023-05-19T07:55:04.209Z,12.35
2023-05-19T07:57:32.464Z,12.23
2023-05-19T07:59:59.535Z,12.29
2023-05-19T08:02:26.708Z,12.39
2023-05-19T08:04:54.312Z,12.63
2023-05-19T08:07:21.502Z,12.14
2023-05-19T08:09:51.509Z,12.20
2023-05-19T08:12:18.663Z,12.40
2023-05-19T08:14:46.018Z,12.23
2023-05-19T08:17:13.098Z,12.36
2023-05-19T08:19:40.326Z,12.39
2023-05-19T08:22:07.389Z,12.47
2023-05-19T08:24:34.621Z,12.44
2023-05-19T08:27:01.664Z,12.40
2023-05-19T08:29:28.725Z,12.43
2023-05-19T08:31:55.911Z,12.26
2023-05-19T08:34:22.977Z,12.28
2023-05-19T08:36:50.222Z,12.29
2023-05-19T08:39:19.640Z,12.21
2023-05-19T08:41:46.850Z,12.33
2023-05-19T08:44:13.924Z,12.36
2023-05-19T08:46:41.826Z,12.43
2023-05-19T08:49:13.506Z,12.67
2023-05-19T08:52:23.370Z,12.68
2023-05-19T08:55:01.016Z,12.66
2023-05-19T08:57:28.801Z,12.56
2023-05-19T08:59:56.721Z,12.66
2023-05-19T09:02:24.397Z,12.82
2023-05-19T09:04:52.806Z,12.86
2023-05-19T09:07:21.992Z,12.87
2023-05-19T09:09:49.551Z,12.82
2023-05-19T09:12:16.576Z,12.94
2023-05-19T09:14:44.038Z,12.98
2023-05-19T09:17:11.176Z,13.09
2023-05-19T09:19:44.539Z,13.01
2023-05-19T09:22:12.109Z,12.96
2023-05-19T09:24:40.531Z,13.20
2023-05-19T09:27:09.116Z,13.14
2023-05-19T09:29:36.143Z,13.39
2023-05-19T09:32:06.232Z,13.49
2023-05-19T09:34:33.407Z,13.34
2023-05-19T09:37:00.599Z,13.48
2023-05-19T09:39:28.893Z,13.59
2023-05-19T09:41:58.737Z,13.51
2023-05-19T09:44:31.238Z,13.69
2023-05-19T09:46:58.969Z,13.69
2023-05-19T09:49:30.531Z,13.39
2023-05-19T09:51:59.663Z,13.46
2023-05-19T09:54:31.998Z,13.77
2023-05-19T09:57:01.011Z,13.69
2023-05-19T09:59:32.047Z,13.71
2023-05-19T10:02:01.551Z,13.79
2023-05-19T10:04:30.459Z,13.64
2023-05-19T10:07:01.713Z,13.68
2023-05-19T10:09:29.934Z,13.67
2023-05-19T10:11:58.892Z,13.73
2023-05-19T10:14:28.477Z,13.67
2023-05-19T10:16:57.800Z,13.58
2023-05-19T10:19:27.835Z,13.82
2023-05-19T10:21:56.305Z,13.82
2023-05-19T10:24:23.427Z,13.45
2023-05-19T10:26:54.111Z,13.68
2023-05-19T10:29:28.214Z,13.54
2023-05-19T10:32:01.245Z,13.72
2023-05-19T10:35:09.336Z,13.82
2023-05-19T10:38:16.494Z,13.99
2023-05-19T10:41:11.676Z,13.91
2023-05-19T10:44:00.507Z,14.00
2023-05-19T10:46:28.652Z,14.11
2023-05-19T10:48:56.050Z,14.80
2023-05-19T10:51:32.533Z,14.75
2023-05-19T10:54:03.276Z,14.51
2023-05-19T10:56:36.414Z,14.48
2023-05-19T10:59:04.208Z,14.90
2023-05-19T11:01:39.000Z,14.95
2023-05-19T11:04:12.453Z,15.54
2023-05-19T11:06:40.808Z,15.27
2023-05-19T11:09:14.558Z,14.92
2023-05-19T11:11:46.342Z,15.05
2023-05-19T11:14:15.100Z,14.86
2023-05-19T11:16:43.206Z,15.18
2023-05-19T11:19:20.053Z,15.17
2023-05-19T11:21:57.624Z,15.30
2023-05-19T11:24:36.099Z,15.19
2023-05-19T11:27:31.260Z,14.93
2023-05-19T11:30:14.526Z,14.99
2023-05-19T11:32:42.940Z,15.29
2023-05-19T11:35:11.156Z,15.22
2023-05-19T11:37:40.513Z,14.91
2023-05-19T11:40:08.396Z,14.87
2023-05-19T11:42:37.032Z,14.95
2023-05-19T11:45:06.099Z,14.80
2023-05-19T11:47:42.573Z,15.00
2023-05-19T11:50:20.649Z,14.78
2023-05-19T11:52:47.950Z,15.03
2023-05-19T11:55:25.324Z,15.06
2023-05-19T11:58:04.738Z,14.96
2023-05-19T12:00:39.092Z,15.00
2023-05-19T12:03:07.163Z,15.16
2023-05-19T12:05:42.961Z,15.41
2023-05-19T12:08:11.814Z,15.33
2023-05-19T12:10:40.283Z,15.36
2023-05-19T12:13:10.653Z,15.43
2023-05-19T12:15:38.938Z,15.25
2023-05-19T12:18:06.773Z,15.31
2023-05-19T12:20:36.286Z,15.40
2023-05-19T12:23:04.225Z,15.47
2023-05-19T12:25:32.053Z,15.27
2023-05-19T12:28:05.513Z,15.59
2023-05-19T12:30:34.725Z,15.22
2023-05-19T12:33:03.407Z,15.24
2023-05-19T12:35:34.258Z,15.37
2023-05-19T12:38:06.266Z,15.55
2023-05-19T12:40:37.806Z,15.56
2023-05-19T12:43:06.890Z,15.65
2023-05-19T12:45:38.324Z,15.69
2023-05-19T12:48:11.657Z,15.30
2023-05-19T12:50:39.087Z,15.24
2023-05-19T12:53:10.736Z,15.01
2023-05-19T12:55:45.430Z,15.31
2023-05-19T12:58:13.363Z,15.86
2023-05-19T13:00:47.330Z,15.72
2023-05-19T13:03:20.559Z,15.73
2023-05-19T13:05:51.000Z,15.84
2023-05-19T13:08:21.635Z,15.82
2023-05-19T13:10:51.810Z,15.89
2023-05-19T13:13:19.408Z,15.57
2023-05-19T13:15:50.625Z,15.90
2023-05-19T13:18:18.328Z,15.69
2023-05-19T13:20:47.199Z,15.51
2023-05-19T13:23:14.956Z,15.77
2023-05-19T13:25:42.806Z,15.70
2023-05-19T13:28:10.506Z,15.54
2023-05-19T13:30:43.549Z,15.48
2023-05-19T13:33:11.554Z,15.73
2023-05-19T13:35:39.193Z,15.85
2023-05-19T13:38:09.621Z,15.47
2023-05-19T13:40:37.343Z,15.35
2023-05-19T13:43:04.861Z,15.67
2023-05-19T13:45:31.996Z,15.76
2023-05-19T13:47:59.116Z,15.40
2023-05-19T13:50:26.524Z,15.52
2023-05-19T13:52:53.925Z,15.36
2023-05-19T13:55:21.260Z,15.53
2023-05-19T13:57:48.305Z,15.54
2023-05-19T14:00:16.054Z,15.69
2023-05-19T14:02:43.303Z,15.65
2023-05-19T14:05:10.628Z,15.75
2023-05-19T14:07:38.437Z,15.15
2023-05-19T14:10:06.942Z,15.29
2023-05-19T14:12:45.068Z,15.19
2023-05-19T14:15:20.141Z,15.13
2023-05-19T14:17:49.030Z,15.36
2023-05-19T14:20:16.290Z,15.20
2023-05-19T14:22:43.413Z,15.11
2023-05-19T14:25:10.636Z,15.14
2023-05-19T14:27:39.911Z,15.12
2023-05-19T14:30:08.579Z,15.13
2023-05-19T14:32:36.103Z,15.17
2023-05-19T14:35:03.579Z,15.33
2023-05-19T14:37:32.015Z,15.18
2023-05-19T14:39:59.588Z,15.12
2023-05-19T14:42:26.717Z,15.18
2023-05-19T14:44:53.886Z,15.11
2023-05-19T14:47:21.040Z,15.24
2023-05-19T14:49:48.203Z,15.06
2023-05-19T14:52:15.326Z,15.17
2023-05-19T14:54:42.493Z,14.97
2023-05-19T14:57:09.527Z,15.07
2023-05-19T14:59:39.821Z,15.15
2023-05-19T15:02:07.200Z,14.98
2023-05-19T15:04:34.271Z,14.97
2023-05-19T15:09:31.827Z,15.31
2023-05-19T15:12:01.302Z,15.57
2023-05-19T15:14:30.518Z,15.31
2023-05-19T15:16:59.337Z,15.07
2023-05-19T15:19:26.946Z,15.06
2023-05-19T15:21:54.324Z,15.09
2023-05-19T15:24:21.523Z,15.20
2023-05-19T15:26:48.788Z,15.29
2023-05-19T15:29:15.932Z,15.28
2023-05-19T15:31:43.251Z,15.03
2023-05-19T15:34:10.439Z,15.12
2023-05-19T15:36:37.503Z,15.09
2023-05-19T15:39:05.148Z,15.27
2023-05-19T15:41:32.272Z,15.06
2023-05-19T15:44:02.797Z,14.97
2023-05-19T15:46:30.576Z,15.13
2023-05-19T15:48:57.723Z,15.05
2023-05-19T15:51:24.971Z,15.06
2023-05-19T15:53:52.994Z,14.77
2023-05-19T15:56:20.074Z,14.86
2023-05-19T15:58:47.338Z,14.84
2023-05-19T16:01:15.664Z,14.77
2023-05-19T16:03:43.704Z,14.83
2023-05-19T16:06:11.078Z,14.93
2023-05-19T16:08:38.231Z,15.10
2023-05-19T16:11:05.676Z,14.91
2023-05-19T16:13:33.893Z,15.03
2023-05-19T16:16:01.113Z,14.99
2023-05-19T16:18:29.340Z,14.70
2023-05-19T16:20:56.679Z,14.97
2023-05-19T16:23:24.827Z,14.86
2023-05-19T16:25:52.355Z,14.80
2023-05-19T16:28:19.547Z,15.00
2023-05-19T16:30:46.707Z,14.88
2023-05-19T16:33:13.798Z,15.09
2023-05-19T16:35:40.937Z,14.93
2023-05-19T16:38:08.206Z,14.95
2023-05-19T16:40:35.777Z,14.95
2023-05-19T16:43:02.996Z,14.69
2023-05-19T16:45:30.059Z,14.78
2023-05-19T16:47:57.148Z,14.80
2023-05-19T16:50:24.278Z,14.80
2023-05-19T16:52:51.308Z,14.75
2023-05-19T16:55:20.104Z,14.96
2023-05-19T16:57:47.429Z,14.92
2023-05-19T17:00:15.659Z,15.17
2023-05-19T17:02:42.902Z,15.02
2023-05-19T17:05:10.211Z,14.83
2023-05-19T17:07:37.274Z,14.93
2023-05-19T17:10:04.842Z,14.87
2023-05-19T17:12:31.910Z,14.89
2023-05-19T17:14:58.981Z,14.88
2023-05-19T17:17:26.212Z,14.79
2023-05-19T17:19:54.517Z,14.72
2023-05-19T17:22:21.548Z,14.88
2023-05-19T17:24:48.617Z,14.81
2023-05-19T17:27:15.673Z,14.88
2023-05-19T17:29:42.785Z,14.78
2023-05-19T17:32:09.851Z,14.87
2023-05-19T17:34:36.989Z,14.89
2023-05-19T17:37:09.761Z,14.98
2023-05-19T17:39:36.780Z,14.85
2023-05-19T17:42:04.620Z,14.98
2023-05-19T17:44:31.664Z,15.21
2023-05-19T17:46:58.786Z,15.18
2023-05-19T17:49:26.177Z,15.13
2023-05-19T17:51:53.771Z,15.06
2023-05-19T17:54:22.109Z,14.99
2023-05-19T17:56:50.945Z,14.97
2023-05-19T17:59:18.423Z,14.75
2023-05-19T18:01:46.386Z,14.84
2023-05-19T18:04:15.402Z,14.89
2023-05-19T18:06:46.053Z,14.90
2023-05-19T18:09:16.488Z,14.82
2023-05-19T18:11:43.500Z,14.82
2023-05-19T18:14:10.934Z,14.76
2023-05-19T18:16:38.353Z,15.01
2023-05-19T18:19:05.438Z,14.94
2023-05-19T18:21:32.608Z,14.85
2023-05-19T18:24:04.354Z,14.85
2023-05-19T18:26:33.155Z,14.75
2023-05-19T18:29:02.819Z,14.92
2023-05-19T18:31:29.965Z,14.86
2023-05-19T18:33:57.079Z,14.76
2023-05-19T18:36:24.102Z,14.78
2023-05-19T18:38:51.073Z,14.89
2023-05-19T18:41:18.436Z,14.78
2023-05-19T18:43:45.784Z,14.90
2023-05-19T18:46:13.618Z,14.90
2023-05-19T18:48:40.862Z,14.93
2023-05-19T18:51:09.443Z,14.77
2023-05-19T18:53:37.294Z,14.80
2023-05-19T18:56:04.743Z,14.74
2023-05-19T18:58:32.250Z,14.75
2023-05-19T19:00:59.435Z,14.82
2023-05-19T19:03:26.769Z,15.02
2023-05-19T19:05:58.143Z,14.90
2023-05-19T19:08:25.679Z,14.75
2023-05-19T19:10:53.579Z,14.81
2023-05-19T19:13:21.119Z,14.89
2023-05-19T19:15:48.151Z,14.82
2023-05-19T19:18:15.174Z,14.77
2023-05-19T19:20:42.374Z,14.94
2023-05-19T19:23:09.382Z,14.78
2023-05-19T19:25:36.607Z,14.80
2023-05-19T19:28:04.094Z,14.70
2023-05-19T19:30:31.243Z,14.84
2023-05-19T19:32:59.504Z,14.84
2023-05-19T19:35:26.609Z,14.73
2023-05-19T19:37:53.809Z,14.69
2023-05-19T19:40:20.914Z,14.60
2023-05-19T19:42:47.967Z,14.67
2023-05-19T19:45:15.780Z,14.69
2023-05-19T19:47:43.130Z,14.66
2023-05-19T19:50:11.515Z,14.65
2023-05-19T19:52:38.659Z,14.63
2023-05-19T19:55:07.046Z,14.66
2023-05-19T19:57:34.360Z,14.73
2023-05-19T20:00:07.932Z,14.67
2023-05-19T20:02:51.694Z,14.71
2023-05-19T20:05:26.816Z,14.68
2023-05-19T20:07:54.191Z,14.76
2023-05-19T20:10:21.622Z,14.67
2023-05-19T20:12:50.565Z,14.65
2023-05-19T20:15:17.851Z,14.59
2023-05-19T20:17:44.917Z,14.64
2023-05-19T20:20:12.708Z,14.67
2023-05-19T20:22:40.186Z,14.65
2023-05-19T20:25:07.918Z,14.66
2023-05-19T20:27:34.968Z,14.63
2023-05-19T20:30:02.000Z,14.71
2023-05-19T20:32:29.160Z,14.74
2023-05-19T20:34:56.620Z,14.55
2023-05-19T20:37:23.808Z,14.61
2023-05-19T20:39:50.859Z,14.58
2023-05-19T20:42:17.855Z,14.66
2023-05-19T20:44:45.075Z,14.72
2023-05-19T20:47:12.333Z,14.58
2023-05-19T20:49:39.399Z,14.43
2023-05-19T20:52:06.787Z,14.59
2023-05-19T20:54:34.026Z,14.50
2023-05-19T20:57:06.352Z,14.51
2023-05-19T20:59:33.681Z,14.47
2023-05-19T21:02:00.831Z,14.51
2023-05-19T21:04:28.082Z,14.50
2023-05-19T21:06:55.207Z,14.63
2023-05-19T21:09:22.558Z,14.51
2023-05-19T21:11:49.630Z,14.40
2023-05-19T21:14:16.697Z,14.46
2023-05-19T21:16:43.790Z,14.42
2023-05-19T21:19:11.006Z,14.48
2023-05-19T21:21:41.838Z,14.52
2023-05-19T21:24:11.530Z,14.81
2023-05-19T21:26:39.322Z,14.70
2023-05-19T21:29:06.944Z,14.67
2023-05-19T21:31:35.445Z,14.69
2023-05-19T21:34:04.095Z,14.37
2023-05-19T21:36:31.816Z,14.40
2023-05-19T21:38:58.917Z,14.34
2023-05-19T21:41:26.052Z,14.37
2023-05-19T21:43:53.173Z,14.36
2023-05-19T21:46:20.295Z,14.45
2023-05-19T21:48:47.375Z,14.50
2023-05-19T21:51:14.450Z,14.50
2023-05-19T21:53:41.878Z,14.39
2023-05-19T21:56:08.923Z,14.51
2023-05-19T21:58:36.088Z,14.42
2023-05-19T22:01:03.640Z,14.32
2023-05-19T22:03:30.801Z,14.41
2023-05-19T22:05:57.942Z,14.25
2023-05-19T22:08:26.075Z,14.36
2023-05-19T22:10:53.610Z,14.56
2023-05-19T22:13:21.553Z,14.43
2023-05-19T22:15:48.673Z,14.31
2023-05-19T22:18:15.805Z,14.27
2023-05-19T22:20:43.228Z,14.39
2023-05-19T22:23:11.400Z,14.42
2023-05-19T22:25:38.448Z,14.30
2023-05-19T22:28:07.923Z,14.37
2023-05-19T22:30:42.339Z,14.50
2023-05-19T22:33:11.355Z,14.46
2023-05-19T22:35:38.610Z,14.39
2023-05-19T22:38:06.454Z,14.38
2023-05-19T22:40:34.696Z,14.44
2023-05-19T22:43:01.996Z,14.43
2023-05-19T22:45:29.119Z,14.37
2023-05-19T22:47:56.260Z,14.41
2023-05-19T22:50:23.385Z,14.34
2023-05-19T22:52:50.606Z,14.47
2023-05-19T22:55:17.720Z,14.38
2023-05-19T22:57:44.964Z,14.33
2023-05-19T23:00:14.386Z,14.44
2023-05-19T23:02:44.713Z,14.46
2023-05-19T23:05:11.822Z,14.37
2023-05-19T23:07:38.916Z,14.35
2023-05-19T23:10:07.658Z,14.36
2023-05-19T23:12:34.895Z,14.45
2023-05-19T23:15:02.337Z,14.41
2023-05-19T23:17:29.411Z,14.45
2023-05-19T23:19:56.546Z,14.30
2023-05-19T23:22:23.655Z,14.21
2023-05-19T23:24:50.856Z,14.24
2023-05-19T23:27:17.886Z,14.29
2023-05-19T23:29:49.530Z,14.41
2023-05-19T23:32:16.716Z,14.36
2023-05-19T23:34:43.980Z,14.27
2023-05-19T23:37:11.788Z,14.24
2023-05-19T23:39:38.894Z,14.25
2023-05-19T23:42:06.279Z,14.12
2023-05-19T23:44:33.386Z,14.16
2023-05-19T23:47:00.582Z,14.21
2023-05-19T23:49:27.756Z,14.14
2023-05-19T23:51:54.879Z,14.09
2023-05-19T23:54:22.048Z,14.07
2023-05-19T23:56:49.081Z,14.05
2023-05-19T23:59:16.121Z,13.92
